Time,TemperatureF,DewpointF,PressureIn,WindDirection,WindDirectionDegrees,WindSpeedMPH,WindSpeedGustMPH,Humidity,HourlyPrecipIn,Conditions,Clouds,dailyrainin,SoftwareType,DateUTC
2013-02-14 00:00:00,52.9,49.3,29.81,West,271,9.0,12.6,87,0.00, ,,-99.99,VWS V12.07,2013-02-14 05:00:00,
2013-02-14 00:01:00,52.9,49.3,29.81,West,277,9.5,13.1,87,0.00, ,,-99.99,VWS V12.07,2013-02-14 05:01:00,
2013-02-14 00:02:00,52.7,49.2,29.81,West,270,7.7,13.1,88,0.00, ,,-99.99,VWS V12.07,2013-02-14 05:02:00,
2013-02-14 00:07:00,52.5,48.8,29.82,WNW,282,11.9,17.0,87,0.00, ,,-99.99,VWS V12.07,2013-02-14 05:07:00,
2013-02-14 00:12:00,52.7,49.2,29.82,West,265,8.6,17.0,88,0.00, ,,-99.99,VWS V12.07,2013-02-14 05:12:00,
2013-02-14 00:17:00,52.8,49.3,29.81,WSW,250,9.8,9.9,88,0.00, ,,-99.99,VWS V12.07,2013-02-14 05:17:00,
2013-02-14 00:22:00,52.6,49.3,29.81,WNW,296,7.0,11.6,89,0.00, ,,-99.99,VWS V12.07,2013-02-14 05:22:00,
2013-02-14 00:27:00,52.4,49.2,29.81,WNW,292,9.8,11.7,89,0.00, ,,-99.99,VWS V12.07,2013-02-14 05:27:00,
2013-02-14 00:32:00,52.3,49.2,29.82,WNW,292,8.2,12.5,89,0.00, ,,-99.99,VWS V12.07,2013-02-14 05:32:00,
2013-02-14 00:37:00,52.4,49.4,29.81,West,260,9.1,9.1,89,0.00, ,,-99.99,VWS V12.07,2013-02-14 05:37:00,
2013-02-14 00:42:00,52.3,49.4,29.81,West,271,8.5,12.1,90,0.00, ,,-99.99,VWS V12.07,2013-02-14 05:42:00,
2013-02-14 00:47:00,51.9,49.1,29.82,West,265,8.8,14.0,90,0.00, ,,-99.99,VWS V12.07,2013-02-14 05:47:00,
2013-02-14 00:52:00,51.9,49.1,29.82,West,271,9.8,15.5,90,0.00, ,,-99.99,VWS V12.07,2013-02-14 05:52:00,
2013-02-14 00:55:00,52.3,49.6,29.82,West,271,7.4,15.5,90,0.00, ,,-99.99,VWS V12.07,2013-02-14 05:55:00,
2013-02-14 01:00:00,52.0,49.4,29.81,NW,306,6.8,14.6,91,0.00, ,,-99.99,VWS V12.07,2013-02-14 06:00:00,
2013-02-14 01:05:00,51.5,49.0,29.82,NW,308,7.5,14.6,91,0.00, ,,-99.99,VWS V12.07,2013-02-14 06:05:00,
2013-02-14 01:10:00,51.8,49.3,29.81,NW,310,12.7,14.7,91,0.00, ,,-99.99,VWS V12.07,2013-02-14 06:10:00,
2013-02-14 01:15:00,52.0,49.6,29.81,NW,305,5.3,14.7,92,0.00, ,,-99.99,VWS V12.07,2013-02-14 06:15:00,
2013-02-14 01:20:00,51.7,49.4,29.81,WSW,258,7.2,12.2,92,0.00, ,,-99.99,VWS V12.07,2013-02-14 06:20:00,
2013-02-14 01:25:00,50.8,48.6,29.81,West,277,9.2,14.0,92,0.00, ,,-99.99,VWS V12.07,2013-02-14 06:25:00,
2013-02-14 01:30:00,50.7,48.5,29.82,WNW,299,11.5,14.0,92,0.00, ,,-99.99,VWS V12.07,2013-02-14 06:30:00,
2013-02-14 01:35:00,51.3,49.1,29.82,WNW,285,7.3,14.0,92,0.00, ,,-99.99,VWS V12.07,2013-02-14 06:35:00,
2013-02-14 01:40:00,50.6,48.3,29.82,WNW,294,6.6,17.8,92,0.00, ,,-99.99,VWS V12.07,2013-02-14 06:40:00,
2013-02-14 01:45:00,50.7,48.4,29.82,WNW,302,9.3,17.8,92,0.00, ,,-99.99,VWS V12.07,2013-02-14 06:45:00,
2013-02-14 01:50:00,50.4,48.2,29.82,WNW,298,11.2,17.8,92,0.00, ,,-99.99,VWS V12.07,2013-02-14 06:50:00,
2013-02-14 01:55:00,51.1,48.9,29.82,NW,312,8.0,17.8,92,0.00, ,,-99.99,VWS V12.07,2013-02-14 06:55:00,
2013-02-14 02:00:00,50.9,48.6,29.83,WNW,292,8.9,13.0,92,0.00, ,,-99.99,VWS V12.07,2013-02-14 07:00:00,
2013-02-14 02:05:00,50.5,48.1,29.83,WNW,287,8.7,15.2,91,0.00, ,,-99.99,VWS V12.07,2013-02-14 07:05:00,
2013-02-14 02:10:00,50.5,48.0,29.84,NW,310,10.4,15.2,91,0.00, ,,-99.99,VWS V12.07,2013-02-14 07:10:00,
2013-02-14 02:15:00,50.9,48.5,29.84,WNW,291,6.1,15.2,91,0.00, ,,-99.99,VWS V12.07,2013-02-14 07:15:00,
2013-02-14 02:20:00,51.0,48.6,29.84,WNW,292,6.2,12.2,92,0.00, ,,-99.99,VWS V12.07,2013-02-14 07:20:00,
2013-02-14 02:25:00,50.5,48.0,29.84,NW,308,14.0,14.5,91,0.00, ,,-99.99,VWS V12.07,2013-02-14 07:25:00,
2013-02-14 02:30:00,50.0,47.1,29.84,NW,305,13.4,19.3,90,0.00, ,,-99.99,VWS V12.07,2013-02-14 07:30:00,
2013-02-14 02:35:00,50.2,47.2,29.84,WNW,299,9.8,19.3,89,0.00, ,,-99.99,VWS V12.07,2013-02-14 07:35:00,
2013-02-14 02:40:00,50.3,47.1,29.84,NW,319,13.0,14.8,89,0.00, ,,-99.99,VWS V12.07,2013-02-14 07:40:00,
2013-02-14 02:45:00,49.7,46.4,29.85,NW,305,9.3,15.9,88,0.00, ,,-99.99,VWS V12.07,2013-02-14 07:45:00,
2013-02-14 02:50:00,50.1,47.1,29.85,NNW,337,12.6,17.1,89,0.00, ,,-99.99,VWS V12.07,2013-02-14 07:50:00,
2013-02-14 02:55:00,50.3,47.5,29.86,NNW,336,9.6,17.1,90,0.00, ,,-99.99,VWS V12.07,2013-02-14 07:55:00,
2013-02-14 03:00:00,50.0,46.7,29.86,NNW,339,9.7,15.5,88,0.00, ,,-99.99,VWS V12.07,2013-02-14 08:00:00,
2013-02-14 03:05:00,49.9,45.9,29.86,NW,316,15.3,20.4,86,0.00, ,,-99.99,VWS V12.07,2013-02-14 08:05:00,
2013-02-14 03:10:00,49.9,45.9,29.86,NW,320,10.7,20.4,86,0.00, ,,-99.99,VWS V12.07,2013-02-14 08:10:00,
2013-02-14 03:15:00,49.3,44.9,29.87,NW,313,15.9,23.2,85,0.00, ,,-99.99,VWS V12.07,2013-02-14 08:15:00,
2013-02-14 03:20:00,49.2,44.9,29.87,NW,320,14.0,16.5,85,0.00, ,,-99.99,VWS V12.07,2013-02-14 08:20:00,
2013-02-14 03:25:00,49.4,45.4,29.87,NNW,333,9.8,20.6,86,0.00, ,,-99.99,VWS V12.07,2013-02-14 08:25:00,
2013-02-14 03:30:00,48.9,38.8,29.88,NNW,336,10.3,20.6,68,0.00, ,,-99.99,VWS V12.07,2013-02-14 08:30:00,
2013-02-14 03:35:00,48.3,43.6,29.88,NW,323,9.9,20.6,84,0.00, ,,-99.99,VWS V12.07,2013-02-14 08:35:00,
2013-02-14 03:41:00,48.5,43.8,29.89,NNW,334,9.8,18.8,84,0.00, ,,-99.99,VWS V12.07,2013-02-14 08:41:00,
2013-02-14 03:46:00,48.4,43.9,29.89,NNW,327,15.6,18.8,84,0.00, ,,-99.99,VWS V12.07,2013-02-14 08:46:00,
2013-02-14 03:51:00,48.2,43.6,29.89,NNW,327,14.1,18.8,84,0.00, ,,-99.99,VWS V12.07,2013-02-14 08:51:00,
2013-02-14 03:56:00,48.1,43.3,29.89,NNW,333,11.8,18.8,83,0.00, ,,-99.99,VWS V12.07,2013-02-14 08:56:00,
2013-02-14 04:01:00,48.1,43.3,29.90,NNW,334,11.6,14.5,84,0.00, ,,-99.99,VWS V12.07,2013-02-14 09:01:00,
2013-02-14 04:06:00,48.3,44.0,29.90,NNW,337,9.8,14.5,85,0.00, ,,-99.99,VWS V12.07,2013-02-14 09:06:00,
2013-02-14 04:12:00,47.8,43.6,29.90,NNW,347,7.4,14.5,85,0.00, ,,-99.99,VWS V12.07,2013-02-14 09:12:00,
2013-02-14 04:17:00,47.9,43.7,29.91,NNW,341,7.9,8.9,85,0.00, ,,-99.99,VWS V12.07,2013-02-14 09:17:00,
2013-02-14 04:22:00,47.9,43.8,29.91,NNW,334,8.6,10.6,86,0.00, ,,-99.99,VWS V12.07,2013-02-14 09:22:00,
2013-02-14 04:28:00,48.0,44.1,29.92,NW,310,5.3,10.8,86,0.00, ,,-99.99,VWS V12.07,2013-02-14 09:28:00,
2013-02-14 04:34:00,47.8,43.4,29.92,NNW,343,7.4,16.0,84,0.00, ,,-99.99,VWS V12.07,2013-02-14 09:34:00,
2013-02-14 04:39:00,47.0,42.5,29.93,NNW,329,14.0,15.0,84,0.00, ,,-99.99,VWS V12.07,2013-02-14 09:39:00,
2013-02-14 04:44:00,46.9,41.8,29.92,NNW,344,13.7,16.5,82,0.00, ,,-99.99,VWS V12.07,2013-02-14 09:44:00,
2013-02-14 04:49:00,47.3,42.5,29.93,NW,320,12.5,17.6,83,0.00, ,,-99.99,VWS V12.07,2013-02-14 09:49:00,
2013-02-14 04:54:00,47.1,42.7,29.93,NNW,336,11.9,17.6,84,0.00, ,,-99.99,VWS V12.07,2013-02-14 09:54:00,
2013-02-14 04:59:00,47.1,42.7,29.94,NNW,347,9.1,13.3,84,0.00, ,,-99.99,VWS V12.07,2013-02-14 09:59:00,
2013-02-14 05:04:00,46.8,42.7,29.94,NNW,341,8.0,13.3,86,0.00, ,,-99.99,VWS V12.07,2013-02-14 10:04:00,
2013-02-14 05:09:00,46.8,42.8,29.95,NNW,332,8.3,13.3,86,0.00, ,,-99.99,VWS V12.07,2013-02-14 10:09:00,
2013-02-14 05:14:00,46.3,42.7,29.95,WNW,303,6.6,13.3,87,0.00, ,,-99.99,VWS V12.07,2013-02-14 10:14:00,
2013-02-14 05:19:00,46.4,43.1,29.95,NW,310,8.9,8.9,88,0.00, ,,-99.99,VWS V12.07,2013-02-14 10:19:00,
2013-02-14 05:24:00,46.2,43.0,29.96,NW,313,8.5,11.6,89,0.00, ,,-99.99,VWS V12.07,2013-02-14 10:24:00,
2013-02-14 05:29:00,45.7,42.5,29.95,NNW,332,9.4,14.7,88,0.00, ,,-99.99,VWS V12.07,2013-02-14 10:29:00,
2013-02-14 05:34:00,46.1,43.2,29.95,NNW,341,10.6,14.7,90,0.00, ,,-99.99,VWS V12.07,2013-02-14 10:34:00,
2013-02-14 05:39:00,45.8,42.5,29.95,NNW,330,11.9,14.4,88,0.00, ,,-99.99,VWS V12.07,2013-02-14 10:39:00,
2013-02-14 05:44:00,45.8,42.4,29.96,NNW,332,14.6,16.7,88,0.00, ,,-99.99,VWS V12.07,2013-02-14 10:44:00,
2013-02-14 05:49:00,45.9,43.0,29.96,NNW,332,10.2,16.7,89,0.00, ,,-99.99,VWS V12.07,2013-02-14 10:49:00,
2013-02-14 05:54:00,45.8,42.8,29.96,NNW,334,9.6,16.7,89,0.00, ,,-99.99,VWS V12.07,2013-02-14 10:54:00,
2013-02-14 05:59:00,45.3,42.5,29.96,NNW,343,11.2,13.2,90,0.00, ,,-99.99,VWS V12.07,2013-02-14 10:59:00,
2013-02-14 06:04:00,45.2,42.5,29.96,NNW,344,11.2,13.9,90,0.00, ,,-99.99,VWS V12.07,2013-02-14 11:04:00,
2013-02-14 06:09:00,45.4,42.8,29.96,NNW,344,11.3,16.7,91,0.00, ,,-99.99,VWS V12.07,2013-02-14 11:09:00,
2013-02-14 06:14:00,44.7,42.0,29.96,NNW,330,11.9,16.7,90,0.00, ,,-99.99,VWS V12.07,2013-02-14 11:14:00,
2013-02-14 06:19:00,44.7,42.3,29.96,NNW,340,12.4,13.0,91,0.00, ,,-99.99,VWS V12.07,2013-02-14 11:19:00,
2013-02-14 06:24:00,45.0,42.5,29.96,NNW,339,11.9,14.7,91,0.00, ,,-99.99,VWS V12.07,2013-02-14 11:24:00,
2013-02-14 06:29:00,44.8,42.5,29.96,NNW,340,10.7,17.3,92,0.00, ,,-99.99,VWS V12.07,2013-02-14 11:29:00,
2013-02-14 06:34:00,45.0,42.7,29.96,NNW,341,8.9,17.3,92,0.00, ,,-99.99,VWS V12.07,2013-02-14 11:34:00,
2013-02-14 06:39:00,44.8,42.5,29.96,North,353,11.4,14.7,91,0.00, ,,-99.99,VWS V12.07,2013-02-14 11:39:00,
2013-02-14 06:44:00,45.1,42.9,29.96,North,358,8.6,15.2,92,0.00, ,,-99.99,VWS V12.07,2013-02-14 11:44:00,
2013-02-14 06:49:00,44.7,42.6,29.96,NNW,344,12.0,15.2,92,0.00, ,,-99.99,VWS V12.07,2013-02-14 11:49:00,
2013-02-14 06:54:00,44.6,42.5,29.97,NNW,348,12.1,15.5,92,0.00, ,,-99.99,VWS V12.07,2013-02-14 11:54:00,
2013-02-14 06:59:00,44.5,42.2,29.97,NW,322,11.7,14.8,92,0.00, ,,-99.99,VWS V12.07,2013-02-14 11:59:00,
2013-02-14 07:04:00,44.0,41.5,29.97,NNW,330,16.1,16.9,91,0.00, ,,-99.99,VWS V12.07,2013-02-14 12:04:00,
2013-02-14 07:09:00,44.5,42.2,29.98,NNW,336,14.0,17.1,92,0.00, ,,-99.99,VWS V12.07,2013-02-14 12:09:00,
2013-02-14 07:14:00,44.5,42.3,29.98,NNW,333,15.2,17.1,92,0.00, ,,-99.99,VWS V12.07,2013-02-14 12:14:00,
2013-02-14 07:19:00,44.2,42.0,29.98,NNW,336,13.9,15.2,92,0.00, ,,-99.99,VWS V12.07,2013-02-14 12:19:00,
2013-02-14 07:24:00,43.8,41.6,29.98,NNW,334,13.8,16.4,92,0.00, ,,-99.99,VWS V12.07,2013-02-14 12:24:00,
2013-02-14 07:29:00,44.0,41.7,29.98,North,358,10.4,16.4,92,0.00, ,,-99.99,VWS V12.07,2013-02-14 12:29:00,
2013-02-14 07:34:00,44.1,41.9,29.98,North,357,9.4,16.4,92,0.00, ,,-99.99,VWS V12.07,2013-02-14 12:34:00,
2013-02-14 07:39:00,44.1,42.2,29.98,NNW,347,9.6,15.2,93,0.00, ,,-99.99,VWS V12.07,2013-02-14 12:39:00,
2013-02-14 07:44:00,43.8,41.6,29.98,NNW,339,12.6,16.2,92,0.00, ,,-99.99,VWS V12.07,2013-02-14 12:44:00,
2013-02-14 07:49:00,43.8,41.2,29.98,NNW,339,16.5,18.6,91,0.00, ,,-99.99,VWS V12.07,2013-02-14 12:49:00,
2013-02-14 07:54:00,44.4,42.2,30.00,NNW,330,15.5,18.6,92,0.00, ,,-99.99,VWS V12.07,2013-02-14 12:54:00,
2013-02-14 07:59:00,44.2,41.7,30.00,NNW,327,17.3,17.5,91,0.00, ,,-99.99,VWS V12.07,2013-02-14 12:59:00,
2013-02-14 08:04:00,43.9,41.1,30.00,North,350,11.6,17.5,90,0.00, ,,-99.99,VWS V12.07,2013-02-14 13:04:00,
2013-02-14 08:09:00,44.1,41.4,30.00,NNW,343,11.4,17.7,90,0.00, ,,-99.99,VWS V12.07,2013-02-14 13:09:00,
2013-02-14 08:14:00,44.3,41.1,30.01,NNW,348,12.1,17.7,88,0.00, ,,-99.99,VWS V12.07,2013-02-14 13:14:00,
2013-02-14 08:19:00,44.7,40.1,30.01,NNE,31,9.3,17.0,84,0.00, ,,-99.99,VWS V12.07,2013-02-14 13:19:00,
2013-02-14 08:24:00,44.3,40.9,30.02,North,7,9.3,19.5,88,0.00, ,,-99.99,VWS V12.07,2013-02-14 13:24:00,
2013-02-14 08:29:00,44.5,40.5,30.02,NW,325,13.0,19.5,86,0.00, ,,-99.99,VWS V12.07,2013-02-14 13:29:00,
2013-02-14 08:34:00,45.0,41.0,30.02,NNW,348,13.3,19.5,86,0.00, ,,-99.99,VWS V12.07,2013-02-14 13:34:00,
2013-02-14 08:39:00,44.7,40.2,30.03,North,354,9.5,15.8,84,0.00, ,,-99.99,VWS V12.07,2013-02-14 13:39:00,
2013-02-14 08:44:00,45.0,40.7,30.02,NW,325,15.2,15.8,85,0.00, ,,-99.99,VWS V12.07,2013-02-14 13:44:00,
2013-02-14 08:49:00,44.8,40.5,30.03,North,351,11.1,17.2,85,0.00, ,,-99.99,VWS V12.07,2013-02-14 13:49:00,
2013-02-14 08:54:00,44.9,40.5,30.03,North,350,10.5,17.2,84,0.00, ,,-99.99,VWS V12.07,2013-02-14 13:54:00,
2013-02-14 08:59:00,45.0,40.3,30.02,North,10,12.6,14.0,83,0.00, ,,-99.99,VWS V12.07,2013-02-14 13:59:00,
2013-02-14 09:04:00,45.0,40.2,30.03,NNE,24,12.1,15.8,83,0.00, ,,-99.99,VWS V12.07,2013-02-14 14:04:00,
2013-02-14 09:09:00,44.6,39.2,30.03,North,2,15.8,18.2,81,0.00, ,,-99.99,VWS V12.07,2013-02-14 14:09:00,
2013-02-14 09:14:00,45.2,39.8,30.05,NNE,24,10.9,18.3,81,0.00, ,,-99.99,VWS V12.07,2013-02-14 14:14:00,
2013-02-14 09:19:00,45.3,39.6,30.04,NNE,22,12.1,16.0,80,0.00, ,,-99.99,VWS V12.07,2013-02-14 14:19:00,
2013-02-14 09:24:00,46.4,40.7,30.03,North,358,13.7,16.0,80,0.00, ,,-99.99,VWS V12.07,2013-02-14 14:24:00,
2013-02-14 09:29:00,46.4,40.8,30.04,NNE,15,9.0,16.0,81,0.00, ,,-99.99,VWS V12.07,2013-02-14 14:29:00,
2013-02-14 09:34:00,45.5,39.2,30.03,North,7,13.6,16.8,78,0.00, ,,-99.99,VWS V12.07,2013-02-14 14:34:00,
2013-02-14 09:39:00,45.8,39.7,30.03,NNW,340,15.0,15.0,79,0.00, ,,-99.99,VWS V12.07,2013-02-14 14:39:00,
2013-02-14 09:44:00,45.5,39.4,30.02,NNE,12,13.4,17.7,79,0.00, ,,-99.99,VWS V12.07,2013-02-14 14:44:00,
2013-02-14 09:50:00,45.6,40.0,30.02,NNE,22,9.9,17.7,81,0.00, ,,-99.99,VWS V12.07,2013-02-14 14:50:00,
2013-02-14 09:55:00,46.0,39.8,30.02,NNE,14,9.7,20.2,79,0.00, ,,-99.99,VWS V12.07,2013-02-14 14:55:00,
2013-02-14 10:00:00,46.4,40.8,30.02,North,355,11.1,16.3,81,0.00, ,,-99.99,VWS V12.07,2013-02-14 15:00:00,
2013-02-14 10:05:00,46.2,39.6,30.03,NNE,17,12.7,17.8,78,0.00, ,,-99.99,VWS V12.07,2013-02-14 15:05:00,
2013-02-14 10:10:00,46.4,39.9,30.03,NNE,29,15.2,17.8,78,0.00, ,,-99.99,VWS V12.07,2013-02-14 15:10:00,
2013-02-14 10:15:00,45.9,39.5,30.03,North,358,11.6,18.4,78,0.00, ,,-99.99,VWS V12.07,2013-02-14 15:15:00,
2013-02-14 10:20:00,46.3,39.4,30.04,NNE,14,12.2,18.3,77,0.00, ,,-99.99,VWS V12.07,2013-02-14 15:20:00,
2013-02-14 10:25:00,46.8,40.0,30.04,NNE,21,15.0,18.3,77,0.00, ,,-99.99,VWS V12.07,2013-02-14 15:25:00,
2013-02-14 10:30:00,46.3,39.7,30.04,North,4,10.9,19.1,78,0.00, ,,-99.99,VWS V12.07,2013-02-14 15:30:00,
2013-02-14 10:35:00,47.0,40.1,30.04,North,7,12.4,19.1,77,0.00, ,,-99.99,VWS V12.07,2013-02-14 15:35:00,
2013-02-14 10:40:00,47.0,40.8,30.04,SE,135,4.8,12.1,79,0.00, ,,-99.99,VWS V12.07,2013-02-14 15:40:00,
2013-02-14 10:45:00,46.2,39.4,30.05,NE,38,10.7,16.2,77,0.00, ,,-99.99,VWS V12.07,2013-02-14 15:45:00,
2013-02-14 10:50:00,47.5,40.9,30.06,ENE,69,5.9,16.2,78,0.00, ,,-99.99,VWS V12.07,2013-02-14 15:50:00,
2013-02-14 10:55:00,47.5,40.4,30.05,East,84,9.6,16.2,76,0.00, ,,-99.99,VWS V12.07,2013-02-14 15:55:00,
2013-02-14 11:00:00,46.6,39.5,30.05,East,83,5.8,14.5,76,0.00, ,,-99.99,VWS V12.07,2013-02-14 16:00:00,
2013-02-14 11:05:00,46.9,40.9,30.04,ENE,63,12.1,14.5,80,0.00, ,,-99.99,VWS V12.07,2013-02-14 16:05:00,
2013-02-14 11:10:00,46.7,39.7,30.04,East,84,8.9,15.3,76,0.00, ,,-99.99,VWS V12.07,2013-02-14 16:10:00,
2013-02-14 11:15:00,47.4,40.3,30.05,NE,53,11.9,15.3,76,0.00, ,,-99.99,VWS V12.07,2013-02-14 16:15:00,
2013-02-14 11:20:00,46.9,39.6,30.04,NNE,15,12.2,13.5,76,0.00, ,,-99.99,VWS V12.07,2013-02-14 16:20:00,
2013-02-14 11:25:00,48.0,40.8,30.04,ENE,57,3.5,15.0,76,0.00, ,,-99.99,VWS V12.07,2013-02-14 16:25:00,
2013-02-14 11:30:00,48.2,41.4,30.05,NNE,12,11.4,15.0,77,0.00, ,,-99.99,VWS V12.07,2013-02-14 16:30:00,
2013-02-14 11:35:00,47.5,40.6,30.05,North,4,5.4,15.0,77,0.00, ,,-99.99,VWS V12.07,2013-02-14 16:35:00,
2013-02-14 11:41:00,47.4,40.5,30.05,NNE,21,8.4,12.3,77,0.00, ,,-99.99,VWS V12.07,2013-02-14 16:41:00,
2013-02-14 11:46:00,47.5,41.0,30.05,NNE,28,6.3,13.5,78,0.00, ,,-99.99,VWS V12.07,2013-02-14 16:46:00,
2013-02-14 11:51:00,48.0,41.6,30.05,NNE,21,7.4,13.5,78,0.00, ,,-99.99,VWS V12.07,2013-02-14 16:51:00,
2013-02-14 11:56:00,47.9,41.3,30.05,ENE,78,5.2,13.5,78,0.00, ,,-99.99,VWS V12.07,2013-02-14 16:56:00,
2013-02-14 12:01:00,48.0,41.2,30.05,NE,56,8.6,12.7,77,0.00, ,,-99.99,VWS V12.07,2013-02-14 17:01:00,
2013-02-14 12:06:00,47.8,40.7,30.05,NNE,26,9.8,12.7,76,0.00, ,,-99.99,VWS V12.07,2013-02-14 17:06:00,
2013-02-14 12:11:00,48.3,41.2,30.04,NE,39,1.7,12.7,76,0.00, ,,-99.99,VWS V12.07,2013-02-14 17:11:00,
2013-02-14 12:16:00,48.4,41.9,30.05,ENE,66,6.2,12.7,78,0.00, ,,-99.99,VWS V12.07,2013-02-14 17:16:00,
2013-02-14 12:21:00,49.0,41.9,30.04,NNE,12,6.5,13.3,76,0.00, ,,-99.99,VWS V12.07,2013-02-14 17:21:00,
2013-02-14 12:26:00,47.7,40.4,30.04,NNE,21,9.6,13.9,76,0.00, ,,-99.99,VWS V12.07,2013-02-14 17:26:00,
2013-02-14 12:31:00,47.7,39.9,30.04,NNE,21,8.2,13.9,74,0.00, ,,-99.99,VWS V12.07,2013-02-14 17:31:00,
2013-02-14 12:36:00,47.6,40.5,30.04,NNE,19,12.4,13.9,76,0.00, ,,-99.99,VWS V12.07,2013-02-14 17:36:00,
2013-02-14 12:41:00,48.1,40.8,30.04,NNE,18,8.8,13.2,76,0.00, ,,-99.99,VWS V12.07,2013-02-14 17:41:00,
2013-02-14 12:46:00,47.2,40.1,30.04,NNE,19,7.0,13.2,76,0.00, ,,-99.99,VWS V12.07,2013-02-14 17:46:00,
2013-02-14 12:51:00,48.4,41.4,30.04,NNW,336,6.7,13.2,76,0.00, ,,-99.99,VWS V12.07,2013-02-14 17:51:00,
2013-02-14 12:56:00,47.8,40.3,30.05,North,358,8.6,13.2,75,0.00, ,,-99.99,VWS V12.07,2013-02-14 17:56:00,
2013-02-14 13:01:00,48.2,41.6,30.04,NNE,22,10.9,12.2,78,0.00, ,,-99.99,VWS V12.07,2013-02-14 18:01:00,
2013-02-14 13:06:00,47.8,40.6,30.04,NW,325,7.3,12.2,76,0.00, ,,-99.99,VWS V12.07,2013-02-14 18:06:00,
2013-02-14 13:11:00,48.1,40.8,30.04,NE,45,8.4,12.2,76,0.00, ,,-99.99,VWS V12.07,2013-02-14 18:11:00,
2013-02-14 13:16:00,48.2,40.3,30.03,NNE,26,6.8,12.2,74,0.00, ,,-99.99,VWS V12.07,2013-02-14 18:16:00,
2013-02-14 13:21:00,48.3,40.3,30.04,NNE,32,6.8,11.2,74,0.00, ,,-99.99,VWS V12.07,2013-02-14 18:21:00,
2013-02-14 13:26:00,48.1,40.4,30.03,NNE,22,8.8,11.4,75,0.00, ,,-99.99,VWS V12.07,2013-02-14 18:26:00,
2013-02-14 13:31:00,48.0,39.9,30.03,NNE,24,6.2,11.4,73,0.00, ,,-99.99,VWS V12.07,2013-02-14 18:31:00,
2013-02-14 13:36:00,49.1,40.4,30.04,NW,323,3.5,11.4,72,0.00, ,,-99.99,VWS V12.07,2013-02-14 18:36:00,
2013-02-14 13:41:00,49.2,40.7,30.04,North,351,6.4,9.8,72,0.00, ,,-99.99,VWS V12.07,2013-02-14 18:41:00,
2013-02-14 13:46:00,49.4,41.3,30.04,ENE,64,7.0,9.8,74,0.00, ,,-99.99,VWS V12.07,2013-02-14 18:46:00,
2013-02-14 13:51:00,48.1,38.9,30.04,ENE,63,7.2,10.1,70,0.00, ,,-99.99,VWS V12.07,2013-02-14 18:51:00,
2013-02-14 13:56:00,48.0,39.4,30.04,ESE,105,5.0,10.1,72,0.00, ,,-99.99,VWS V12.07,2013-02-14 18:56:00,
2013-02-14 14:01:00,49.0,40.7,30.04,North,2,3.0,11.2,73,0.00, ,,-99.99,VWS V12.07,2013-02-14 19:01:00,
2013-02-14 14:06:00,48.4,38.6,30.04,North,2,5.2,11.2,69,0.00, ,,-99.99,VWS V12.07,2013-02-14 19:06:00,
2013-02-14 14:11:00,49.0,39.1,30.03,ENE,67,4.7,11.2,69,0.00, ,,-99.99,VWS V12.07,2013-02-14 19:11:00,
2013-02-14 14:16:00,48.6,38.7,30.02,East,97,6.1,11.2,68,0.00, ,,-99.99,VWS V12.07,2013-02-14 19:16:00,
2013-02-14 14:21:00,48.2,38.8,30.02,East,83,8.8,11.6,70,0.00, ,,-99.99,VWS V12.07,2013-02-14 19:21:00,
2013-02-14 14:26:00,48.8,40.0,30.02,NNE,14,4.2,11.6,72,0.00, ,,-99.99,VWS V12.07,2013-02-14 19:26:00,
2013-02-14 14:31:00,49.2,40.1,30.01,NNE,24,4.5,11.6,71,0.00, ,,-99.99,VWS V12.07,2013-02-14 19:31:00,
2013-02-14 14:36:00,49.1,39.8,30.01,East,84,5.1,11.6,70,0.00, ,,-99.99,VWS V12.07,2013-02-14 19:36:00,
2013-02-14 14:41:00,48.3,39.7,30.01,NE,40,5.5,9.8,72,0.00, ,,-99.99,VWS V12.07,2013-02-14 19:41:00,
2013-02-14 14:46:00,48.4,39.7,30.02,NE,46,7.1,9.8,72,0.00, ,,-99.99,VWS V12.07,2013-02-14 19:46:00,
2013-02-14 14:51:00,49.1,40.5,30.02,NNE,24,4.5,9.8,72,0.00, ,,-99.99,VWS V12.07,2013-02-14 19:51:00,
2013-02-14 14:57:00,49.9,40.6,30.03,SE,135,6.8,6.8,70,0.00, ,,-99.99,VWS V12.07,2013-02-14 19:57:00,
2013-02-14 15:02:00,49.7,40.9,30.02,NNE,15,3.3,7.6,72,0.00, ,,-99.99,VWS V12.07,2013-02-14 20:02:00,
2013-02-14 15:07:00,49.8,41.3,30.02,NNE,15,0.0,7.6,72,0.00, ,,-99.99,VWS V12.07,2013-02-14 20:07:00,
2013-02-14 15:12:00,49.7,40.7,30.02,ENE,78,2.7,7.6,71,0.00, ,,-99.99,VWS V12.07,2013-02-14 20:12:00,
2013-02-14 15:17:00,50.0,40.9,30.03,ESE,108,6.2,6.2,71,0.00, ,,-99.99,VWS V12.07,2013-02-14 20:17:00,
2013-02-14 15:22:00,49.6,40.2,30.03,ESE,122,5.1,7.6,70,0.00, ,,-99.99,VWS V12.07,2013-02-14 20:22:00,
2013-02-14 15:27:00,50.0,40.8,30.03,SE,143,4.5,7.6,70,0.00, ,,-99.99,VWS V12.07,2013-02-14 20:27:00,
2013-02-14 15:32:00,50.2,41.0,30.03,ENE,62,0.0,7.6,70,0.00, ,,-99.99,VWS V12.07,2013-02-14 20:32:00,
2013-02-14 15:37:00,49.5,40.5,30.03,East,95,6.2,6.5,71,0.00, ,,-99.99,VWS V12.07,2013-02-14 20:37:00,
2013-02-14 15:42:00,49.4,40.4,30.03,East,88,5.2,6.7,71,0.00, ,,-99.99,VWS V12.07,2013-02-14 20:42:00,
2013-02-14 15:47:00,50.4,41.4,30.04,East,81,0.0,7.7,71,0.00, ,,-99.99,VWS V12.07,2013-02-14 20:47:00,
2013-02-14 15:52:00,50.1,41.7,30.04,SE,146,5.2,7.7,73,0.00, ,,-99.99,VWS V12.07,2013-02-14 20:52:00,
2013-02-14 15:57:00,49.6,40.7,30.03,ESE,114,5.8,5.9,71,0.00, ,,-99.99,VWS V12.07,2013-02-14 20:57:00,
2013-02-14 16:02:00,50.0,41.7,30.03,ENE,64,0.0,6.0,73,0.00, ,,-99.99,VWS V12.07,2013-02-14 21:02:00,
2013-02-14 16:07:00,50.0,42.0,30.03,SE,140,5.2,6.2,74,0.00, ,,-99.99,VWS V12.07,2013-02-14 21:07:00,
2013-02-14 16:12:00,50.1,42.0,30.02,East,83,0.0,6.6,74,0.00, ,,-99.99,VWS V12.07,2013-02-14 21:12:00,
2013-02-14 16:17:00,49.4,41.3,30.02,ESE,118,7.7,7.8,73,0.00, ,,-99.99,VWS V12.07,2013-02-14 21:17:00,
2013-02-14 16:22:00,49.3,41.6,30.02,SE,126,5.7,9.1,75,0.00, ,,-99.99,VWS V12.07,2013-02-14 21:22:00,
2013-02-14 16:27:00,49.6,41.8,30.02,SE,138,4.4,9.1,74,0.00, ,,-99.99,VWS V12.07,2013-02-14 21:27:00,
2013-02-14 16:32:00,49.6,41.7,30.02,SSE,160,5.7,9.4,74,0.00, ,,-99.99,VWS V12.07,2013-02-14 21:32:00,
2013-02-14 16:37:00,49.5,41.6,30.02,SE,140,5.0,5.6,74,0.00, ,,-99.99,VWS V12.07,2013-02-14 21:37:00,
2013-02-14 16:42:00,49.6,41.9,30.03,SE,145,7.3,8.8,75,0.00, ,,-99.99,VWS V12.07,2013-02-14 21:42:00,
2013-02-14 16:47:00,49.2,42.1,30.03,SE,142,8.5,9.6,76,0.00, ,,-99.99,VWS V12.07,2013-02-14 21:47:00,
2013-02-14 16:52:00,48.9,42.8,30.04,SE,140,6.5,12.5,79,0.00, ,,-99.99,VWS V12.07,2013-02-14 21:52:00,
2013-02-14 16:57:00,48.8,42.5,30.04,SSE,166,5.2,6.2,79,0.00, ,,-99.99,VWS V12.07,2013-02-14 21:57:00,
2013-02-14 17:02:00,48.9,42.9,30.05,SE,140,7.3,10.4,80,0.00, ,,-99.99,VWS V12.07,2013-02-14 22:02:00,
2013-02-14 17:07:00,48.5,42.7,30.04,SE,133,9.7,10.8,80,0.00, ,,-99.99,VWS V12.07,2013-02-14 22:07:00,
2013-02-14 17:12:00,48.6,43.0,30.05,SE,135,10.2,11.4,81,0.00, ,,-99.99,VWS V12.07,2013-02-14 22:12:00,
2013-02-14 17:17:00,48.6,42.6,30.04,ESE,116,7.4,7.5,80,0.00, ,,-99.99,VWS V12.07,2013-02-14 22:17:00,
2013-02-14 17:22:00,48.5,42.8,30.04,SE,132,7.4,10.7,81,0.00, ,,-99.99,VWS V12.07,2013-02-14 22:22:00,
2013-02-14 17:27:00,48.3,42.5,30.05,SE,138,6.7,10.7,80,0.00, ,,-99.99,VWS V12.07,2013-02-14 22:27:00,
2013-02-14 17:32:00,48.4,42.6,30.05,ESE,123,7.8,10.7,80,0.00, ,,-99.99,VWS V12.07,2013-02-14 22:32:00,
2013-02-14 17:37:00,48.2,42.5,30.05,East,100,8.8,8.9,81,0.00, ,,-99.99,VWS V12.07,2013-02-14 22:37:00,
2013-02-14 17:42:00,48.2,42.8,30.05,ESE,115,6.6,9.9,81,0.00, ,,-99.99,VWS V12.07,2013-02-14 22:42:00,
2013-02-14 17:47:00,47.9,42.6,30.05,SE,146,5.4,9.9,82,0.00, ,,-99.99,VWS V12.07,2013-02-14 22:47:00,
2013-02-14 17:52:00,48.3,42.8,30.06,ESE,116,4.9,9.9,81,0.00, ,,-99.99,VWS V12.07,2013-02-14 22:52:00,
2013-02-14 17:57:00,48.2,42.7,30.06,SE,125,5.2,5.5,81,0.00, ,,-99.99,VWS V12.07,2013-02-14 22:57:00,
2013-02-14 18:02:00,48.0,42.4,30.05,ESE,108,6.1,7.8,81,0.00, ,,-99.99,VWS V12.07,2013-02-14 23:02:00,
2013-02-14 18:07:00,48.0,42.5,30.05,East,90,5.0,7.8,81,0.00, ,,-99.99,VWS V12.07,2013-02-14 23:07:00,
2013-02-14 18:12:00,47.7,42.0,30.06,East,98,5.8,7.8,80,0.00, ,,-99.99,VWS V12.07,2013-02-14 23:12:00,
2013-02-14 18:17:00,48.0,42.4,30.05,ESE,104,7.0,7.3,81,0.00, ,,-99.99,VWS V12.07,2013-02-14 23:17:00,
2013-02-14 18:22:00,48.2,42.9,30.05,ESE,119,5.5,7.3,82,0.00, ,,-99.99,VWS V12.07,2013-02-14 23:22:00,
2013-02-14 18:27:00,48.2,42.8,30.05,ESE,119,6.7,7.6,82,0.00, ,,-99.99,VWS V12.07,2013-02-14 23:27:00,
2013-02-14 18:32:00,47.6,42.3,30.05,ESE,114,0.0,7.8,82,0.00, ,,-99.99,VWS V12.07,2013-02-14 23:32:00,
2013-02-14 18:37:00,47.4,42.3,30.05,ESE,105,6.1,7.0,82,0.00, ,,-99.99,VWS V12.07,2013-02-14 23:37:00,
2013-02-14 18:42:00,48.0,43.0,30.07,SE,125,5.3,7.0,83,0.00, ,,-99.99,VWS V12.07,2013-02-14 23:42:00,
2013-02-14 18:47:00,47.7,42.6,30.06,ESE,108,6.7,7.7,82,0.00, ,,-99.99,VWS V12.07,2013-02-14 23:47:00,
2013-02-14 18:52:00,47.7,43.0,30.06,ESE,114,7.2,7.8,84,0.00, ,,-99.99,VWS V12.07,2013-02-14 23:52:00,
2013-02-14 18:57:00,47.5,43.0,30.06,ESE,119,6.2,6.4,84,0.00, ,,-99.99,VWS V12.07,2013-02-14 23:57:00,
2013-02-14 19:02:00,47.5,43.2,30.06,East,98,3.5,8.3,85,0.00, ,,-99.99,VWS V12.07,2013-02-15 00:02:00,
2013-02-14 19:07:00,47.1,43.1,30.07,East,83,5.2,8.3,86,0.00, ,,-99.99,VWS V12.07,2013-02-15 00:07:00,
2013-02-14 19:12:00,47.6,43.4,30.07,ESE,104,3.3,8.3,85,0.00, ,,-99.99,VWS V12.07,2013-02-15 00:12:00,
2013-02-14 19:17:00,47.7,43.6,30.07,East,92,5.4,5.4,86,0.00, ,,-99.99,VWS V12.07,2013-02-15 00:17:00,
2013-02-14 19:22:00,47.5,43.5,30.08,ESE,112,5.5,7.7,86,0.00, ,,-99.99,VWS V12.07,2013-02-15 00:22:00,
2013-02-14 19:27:00,47.9,44.0,30.08,SE,130,4.5,7.7,86,0.00, ,,-99.99,VWS V12.07,2013-02-15 00:27:00,
2013-02-14 19:32:00,47.8,43.7,30.08,ESE,114,5.0,7.7,86,0.00, ,,-99.99,VWS V12.07,2013-02-15 00:32:00,
2013-02-14 19:37:00,47.6,43.4,30.08,ESE,105,5.8,5.8,85,0.00, ,,-99.99,VWS V12.07,2013-02-15 00:37:00,
2013-02-14 19:42:00,47.8,43.6,30.08,ESE,112,4.7,6.8,85,0.00, ,,-99.99,VWS V12.07,2013-02-15 00:42:00,
2013-02-14 19:47:00,47.8,43.6,30.08,ESE,112,6.8,7.5,85,0.00, ,,-99.99,VWS V12.07,2013-02-15 00:47:00,
2013-02-14 19:52:00,47.4,43.2,30.07,ESE,102,7.8,8.4,85,0.00, ,,-99.99,VWS V12.07,2013-02-15 00:52:00,
2013-02-14 19:57:00,47.5,43.5,30.07,SE,130,6.6,7.4,86,0.00, ,,-99.99,VWS V12.07,2013-02-15 00:57:00,
2013-02-14 20:02:00,47.9,44.0,30.07,ENE,73,0.0,8.0,86,0.00, ,,-99.99,VWS V12.07,2013-02-15 01:02:00,
2013-02-14 20:07:00,47.5,43.6,30.07,ESE,104,5.0,8.0,86,0.00, ,,-99.99,VWS V12.07,2013-02-15 01:07:00,
2013-02-14 20:12:00,47.7,43.8,30.07,East,90,0.0,8.0,86,0.00, ,,-99.99,VWS V12.07,2013-02-15 01:12:00,
2013-02-14 20:17:00,47.7,43.9,30.07,East,90,0.0,0.0,87,0.00, ,,-99.99,VWS V12.07,2013-02-15 01:17:00,
2013-02-14 20:22:00,47.7,43.9,30.08,East,91,3.0,6.1,86,0.00, ,,-99.99,VWS V12.07,2013-02-15 01:22:00,
2013-02-14 20:27:00,47.7,43.8,30.08,ESE,116,3.5,6.1,86,0.00, ,,-99.99,VWS V12.07,2013-02-15 01:27:00,
2013-02-14 20:33:00,47.4,43.3,30.08,SSE,152,5.9,6.4,86,0.00, ,,-99.99,VWS V12.07,2013-02-15 01:33:00,
2013-02-14 20:38:00,47.7,43.8,30.09,SE,142,4.1,6.2,86,0.00, ,,-99.99,VWS V12.07,2013-02-15 01:38:00,
2013-02-14 20:43:00,47.7,43.8,30.09,SE,133,0.0,6.2,86,0.00, ,,-99.99,VWS V12.07,2013-02-15 01:43:00,
2013-02-14 20:48:00,47.8,43.9,30.10,SE,133,0.0,6.2,86,0.00, ,,-99.99,VWS V12.07,2013-02-15 01:48:00,
2013-02-14 20:53:00,47.5,43.6,30.09,SE,133,0.0,6.2,86,0.00, ,,-99.99,VWS V12.07,2013-02-15 01:53:00,
2013-02-14 20:58:00,47.4,43.4,30.10,ENE,78,3.5,4.8,86,0.00, ,,-99.99,VWS V12.07,2013-02-15 01:58:00,
2013-02-14 21:03:00,47.7,43.7,30.09,ENE,70,3.1,4.8,86,0.00, ,,-99.99,VWS V12.07,2013-02-15 02:03:00,
2013-02-14 21:08:00,47.6,43.3,30.09,NE,53,3.2,5.0,85,0.00, ,,-99.99,VWS V12.07,2013-02-15 02:08:00,
2013-02-14 21:13:00,47.6,43.3,30.09,ENE,57,0.0,5.0,85,0.00, ,,-99.99,VWS V12.07,2013-02-15 02:13:00,
2013-02-14 21:18:00,48.0,43.8,30.09,ENE,57,0.0,0.0,85,0.00, ,,-99.99,VWS V12.07,2013-02-15 02:18:00,
2013-02-14 21:23:00,47.5,43.4,30.10,ENE,57,0.0,0.0,86,0.00, ,,-99.99,VWS V12.07,2013-02-15 02:23:00,
2013-02-14 21:28:00,47.4,43.4,30.10,ENE,57,0.0,0.0,86,0.00, ,,-99.99,VWS V12.07,2013-02-15 02:28:00,
2013-02-14 21:33:00,47.8,43.8,30.10,ENE,57,0.0,0.0,86,0.00, ,,-99.99,VWS V12.07,2013-02-15 02:33:00,
2013-02-14 21:38:00,48.0,44.0,30.10,ENE,57,0.0,0.0,86,0.00, ,,-99.99,VWS V12.07,2013-02-15 02:38:00,
2013-02-14 21:43:00,48.2,44.2,30.10,ENE,57,0.0,0.0,86,0.00, ,,-99.99,VWS V12.07,2013-02-15 02:43:00,
2013-02-14 21:48:00,47.5,43.4,30.10,ENE,57,0.0,0.0,86,0.00, ,,-99.99,VWS V12.07,2013-02-15 02:48:00,
2013-02-14 21:53:00,47.6,43.4,30.10,ENE,57,0.0,0.0,85,0.00, ,,-99.99,VWS V12.07,2013-02-15 02:53:00,
2013-02-14 21:58:00,48.0,43.7,30.10,ENE,57,0.0,0.0,85,0.00, ,,-99.99,VWS V12.07,2013-02-15 02:58:00,
2013-02-14 22:03:00,48.1,43.8,30.10,ENE,57,0.0,0.0,85,0.00, ,,-99.99,VWS V12.07,2013-02-15 03:03:00,
2013-02-14 22:08:00,48.3,44.1,30.10,ENE,57,0.0,0.0,85,0.00, ,,-99.99,VWS V12.07,2013-02-15 03:08:00,
2013-02-14 22:13:00,47.8,43.7,30.11,ENE,57,0.0,0.0,86,0.00, ,,-99.99,VWS V12.07,2013-02-15 03:13:00,
2013-02-14 22:18:00,47.8,43.8,30.10,ENE,57,0.0,0.0,86,0.00, ,,-99.99,VWS V12.07,2013-02-15 03:18:00,
2013-02-14 22:23:00,47.6,44.4,30.10,NNW,340,0.0,4.3,89,0.00, ,,-99.99,VWS V12.07,2013-02-15 03:23:00,
2013-02-14 22:28:00,47.6,45.0,30.10,NNW,340,0.0,4.3,91,0.00, ,,-99.99,VWS V12.07,2013-02-15 03:28:00,
2013-02-14 22:33:00,47.2,45.2,30.09,NNW,340,0.0,4.3,93,0.00, ,,-99.99,VWS V12.07,2013-02-15 03:33:00,
2013-02-14 22:38:00,46.8,45.4,30.08,North,360,0.0,5.3,95,0.00, ,,-99.99,VWS V12.07,2013-02-15 03:38:00,
2013-02-14 22:43:00,47.0,45.8,30.08,North,358,4.5,6.2,95,0.00, ,,-99.99,VWS V12.07,2013-02-15 03:43:00,
2013-02-14 22:48:00,47.0,45.7,30.07,North,4,0.0,6.2,95,0.00, ,,-99.99,VWS V12.07,2013-02-15 03:48:00,
2013-02-14 22:53:00,46.7,45.4,30.07,North,4,0.0,6.2,95,0.00, ,,-99.99,VWS V12.07,2013-02-15 03:53:00,
2013-02-14 22:58:00,46.5,45.3,30.07,North,4,0.0,0.0,96,0.00, ,,-99.99,VWS V12.07,2013-02-15 03:58:00,
2013-02-14 23:03:00,46.8,45.6,30.07,North,4,0.0,0.0,96,0.00, ,,-99.99,VWS V12.07,2013-02-15 04:03:00,
2013-02-14 23:08:00,46.3,45.1,30.06,North,4,0.0,0.0,95,0.00, ,,-99.99,VWS V12.07,2013-02-15 04:08:00,
2013-02-14 23:13:00,46.6,45.5,30.06,North,4,0.0,0.0,96,0.00, ,,-99.99,VWS V12.07,2013-02-15 04:13:00,
2013-02-14 23:18:00,47.0,45.8,30.05,NNE,12,6.8,7.8,96,0.00, ,,-99.99,VWS V12.07,2013-02-15 04:18:00,
2013-02-14 23:23:00,46.9,45.5,30.06,North,2,6.6,8.0,95,0.00, ,,-99.99,VWS V12.07,2013-02-15 04:23:00,
2013-02-14 23:28:00,46.6,45.2,30.07,NNE,21,6.5,8.1,95,0.00, ,,-99.99,VWS V12.07,2013-02-15 04:28:00,
2013-02-14 23:33:00,46.5,45.0,30.06,NNE,18,6.4,8.4,95,0.00, ,,-99.99,VWS V12.07,2013-02-15 04:33:00,
2013-02-14 23:38:00,46.7,45.4,30.07,North,5,4.7,7.3,95,0.00, ,,-99.99,VWS V12.07,2013-02-15 04:38:00,
2013-02-14 23:43:00,46.9,45.6,30.07,North,1,4.4,7.3,95,0.00, ,,-99.99,VWS V12.07,2013-02-15 04:43:00,
2013-02-14 23:48:00,47.1,45.6,30.07,North,357,6.5,9.4,94,0.00, ,,-99.99,VWS V12.07,2013-02-15 04:48:00,
2013-02-14 23:53:00,46.8,45.2,30.07,North,8,6.5,9.4,94,0.00, ,,-99.99,VWS V12.07,2013-02-15 04:53:00,
2013-02-14 23:58:00,46.6,45.0,30.07,North,355,0.0,0.0,94,0.00, ,,-99.99,VWS V12.07,2013-02-15 04:58:00,